Isanti, MN (55040)

5:31 PM CST on December 20, 2014 (GMT -0600)
City of Isanti | Change Station
CLOSE
Current Station
Personal Weather Station
Location: Isanti, MN
Elevation: 922 ft
Nearby Weather Stations

Elev 922 ft 45.49 °N, 93.24 °W | Updated 4 seconds ago

Overcast
Overcast
29.3 °F
Feels Like 25 °F
N
4.3
Wind Variable Wind from ESE
Gusts 4.3 mph

Today
High -- | Low -- °F
--% Chance of Precip.
Yesterday
High -- | Low -- °F
Precip. -- in
7:49 AM 4:31 PM
Waning Crescent, 2% visible
Pressure 30.08 in
Visibility 10.0 miles
Clouds Overcast 1100 ft
Windchill 25 °F
Dew Point -33 °F
Humidity 5%
Rainfall 0.00 in
Snow Depth Not available.
UV 0 out of 12
Pollen .10 out of 12
Air Quality Not available.
Flu Activity Not available.
METAR KCBG 202315Z AUTO 15005KT 10SM OVC011 01/M04 A3008 RMK AO2

More Conditions Fewer Conditions

Pressure 30.08 in
Visibility 10.0 miles
Clouds Overcast 1100 ft
Windchill 25 °F
Dew Point -33 °F
Humidity 5%
Rainfall 0.00 in
Snow Depth Not available.
UV 0 out of 12
Pollen .10 out of 12
Air Quality Not available.
Flu Activity Not available.
METAR KCBG 202315Z AUTO 15005KT 10SM OVC011 01/M04 A3008 RMK AO2

More Conditions Fewer Conditions

10-Day Weather Forecast

Almanac

Astronomy

Dec. 20, 2014 Rise Set
Actual Time
Civil Twilight
Nautical Twilight
Astronomical Twilight
Moon
Length of Visible Light
Length of Day
Tomorrow will be .
, % of the Moon is Illuminated

Today's Extremes

State Highs State Lows

Community

WunderPhotos

Upload Photos

1,779,319 photos uploaded!

WunderBlogs® & News

Nearby

Air Quality

  Air Quality AQ Index Pollutant
Not available.

Snow Depth

Station Depth Elevation

Earthquake Activity

City Distance Mag. Time & Date
Minimum magnitude displayed is 2.5.

Coastal Water Temperatures

Place Temperature

Nearby Weather Stations